sensor_id;sensor_type;location;lat;lon;timestamp;noise_LAeq;noise_LA_min;noise_LA_max;noise_LA01;noise_LA95
69610;Laerm;56816;52.192;4.474;2023-03-01T00:00:08;36.14;33.11;38.45;;
69610;Laerm;56816;52.192;4.474;2023-03-01T00:00:19;38.27;34.19;43.12;;
69610;Laerm;56816;52.192;4.474;2023-03-01T00:00:29;37.60;33.39;41.58;;
69610;Laerm;56816;52.192;4.474;2023-03-01T00:00:40;35.89;33.21;38.84;;
69610;Laerm;56816;52.192;4.474;2023-03-01T00:00:50;35.76;32.88;38.76;;
69610;Laerm;56816;52.192;4.474;2023-03-01T00:01:05;36.53;33.11;39.28;;
69610;Laerm;56816;52.192;4.474;2023-03-01T00:01:16;39.41;33.58;49.25;;
69610;Laerm;56816;52.192;4.474;2023-03-01T00:01:28;42.76;37.10;48.03;;
69610;Laerm;56816;52.192;4.474;2023-03-01T00:01:38;42.16;37.75;45.91;;
69610;Laerm;56816;52.192;4.474;2023-03-01T00:01:49;41.57;37.18;45.30;;
69610;Laerm;56816;52.192;4.474;2023-03-01T00:01:59;41.43;37.82;44.60;;
69610;Laerm;56816;52.192;4.474;2023-03-01T00:02:09;42.09;37.34;46.28;;
69610;Laerm;56816;52.192;4.474;2023-03-01T00:02:20;38.19;34.89;41.14;;
69610;Laerm;56816;52.192;4.474;2023-03-01T00:02:30;38.35;34.96;42.07;;
69610;Laerm;56816;52.192;4.474;2023-03-01T00:02:40;37.12;33.34;46.59;;
69610;Laerm;56816;52.192;4.474;2023-03-01T00:02:51;39.88;34.04;48.30;;
69610;Laerm;56816;52.192;4.474;2023-03-01T00:03:01;36.81;32.54;42.66;;
69610;Laerm;56816;52.192;4.474;2023-03-01T00:03:11;35.71;33.24;38.77;;
69610;Laerm;56816;52.192;4.474;2023-03-01T00:03:21;34.66;31.84;38.63;;
69610;Laerm;56816;52.192;4.474;2023-03-01T00:03:32;35.32;33.30;37.42;;
69610;Laerm;56816;52.192;4.474;2023-03-01T00:03:43;36.17;33.87;38.54;;
69610;Laerm;56816;52.192;4.474;2023-03-01T00:03:53;41.28;34.89;55.52;;
69610;Laerm;56816;52.192;4.474;2023-03-01T00:04:03;54.27;38.71;60.83;;
69610;Laerm;56816;52.192;4.474;2023-03-01T00:04:14;41.99;36.52;47.95;;
69610;Laerm;56816;52.192;4.474;2023-03-01T00:04:24;35.36;33.29;38.41;;
69610;Laerm;56816;52.192;4.474;2023-03-01T00:04:34;34.17;32.33;37.85;;
69610;Laerm;56816;52.192;4.474;2023-03-01T00:04:45;35.06;32.53;37.37;;
69610;Laerm;56816;52.192;4.474;2023-03-01T00:04:56;48.32;34.14;62.74;;
69610;Laerm;56816;52.192;4.474;2023-03-01T00:05:06;50.50;35.45;63.88;;
69610;Laerm;56816;52.192;4.474;2023-03-01T00:05:17;39.93;35.30;54.55;;
69610;Laerm;56816;52.192;4.474;2023-03-01T00:05:27;38.30;35.75;41.09;;
69610;Laerm;56816;52.192;4.474;2023-03-01T00:05:43;44.47;35.99;56.75;;
69610;Laerm;56816;52.192;4.474;2023-03-01T00:05:53;41.25;38.56;44.90;;
69610;Laerm;56816;52.192;4.474;2023-03-01T00:06:04;42.16;38.91;44.84;;
69610;Laerm;56816;52.192;4.474;2023-03-01T00:06:14;41.43;39.17;44.38;;
69610;Laerm;56816;52.192;4.474;2023-03-01T00:06:25;41.86;38.39;45.35;;
69610;Laerm;56816;52.192;4.474;2023-03-01T00:06:36;40.77;37.79;44.34;;
69610;Laerm;56816;52.192;4.474;2023-03-01T00:06:47;40.79;36.68;47.09;;
69610;Laerm;56816;52.192;4.474;2023-03-01T00:06:57;42.52;37.66;52.50;;
69610;Laerm;56816;52.192;4.474;2023-03-01T00:07:07;43.46;38.85;48.14;;
69610;Laerm;56816;52.192;4.474;2023-03-01T00:07:18;43.97;39.35;48.57;;
69610;Laerm;56816;52.192;4.474;2023-03-01T00:07:28;48.43;43.26;52.38;;
69610;Laerm;56816;52.192;4.474;2023-03-01T00:07:38;48.86;45.45;53.73;;
69610;Laerm;56816;52.192;4.474;2023-03-01T00:07:51;45.88;42.87;50.49;;
69610;Laerm;56816;52.192;4.474;2023-03-01T00:08:02;50.28;41.60;65.47;;
69610;Laerm;56816;52.192;4.474;2023-03-01T00:08:12;41.36;38.25;44.87;;
69610;Laerm;56816;52.192;4.474;2023-03-01T00:08:23;40.97;37.12;45.54;;
69610;Laerm;56816;52.192;4.474;2023-03-01T00:08:33;39.39;36.58;42.65;;
69610;Laerm;56816;52.192;4.474;2023-03-01T00:08:43;38.72;34.86;43.31;;
69610;Laerm;56816;52.192;4.474;2023-03-01T00:08:54;37.81;34.68;41.15;;
69610;Laerm;56816;52.192;4.474;2023-03-01T00:09:04;38.29;34.91;42.24;;
69610;Laerm;56816;52.192;4.474;2023-03-01T00:09:15;39.60;35.89;44.69;;
69610;Laerm;56816;52.192;4.474;2023-03-01T00:09:25;39.23;34.85;42.20;;
69610;Laerm;56816;52.192;4.474;2023-03-01T00:09:36;38.92;35.66;43.18;;
69610;Laerm;56816;52.192;4.474;2023-03-01T00:09:46;40.18;35.90;46.33;;
69610;Laerm;56816;52.192;4.474;2023-03-01T00:09:57;40.41;35.64;42.77;;
69610;Laerm;56816;52.192;4.474;2023-03-01T00:10:07;39.34;35.24;43.80;;
69610;Laerm;56816;52.192;4.474;2023-03-01T00:10:17;41.02;37.08;45.88;;
69610;Laerm;56816;52.192;4.474;2023-03-01T00:10:28;41.45;36.45;47.98;;
69610;Laerm;56816;52.192;4.474;2023-03-01T00:10:38;39.98;35.73;46.06;;
69610;Laerm;56816;52.192;4.474;2023-03-01T00:10:48;38.75;35.66;41.32;;
69610;Laerm;56816;52.192;4.474;2023-03-01T00:11:25;43.21;36.98;48.55;;
69610;Laerm;56816;52.192;4.474;2023-03-01T00:11:35;44.34;39.45;49.46;;
69610;Laerm;56816;52.192;4.474;2023-03-01T00:11:46;50.70;40.73;61.21;;
69610;Laerm;56816;52.192;4.474;2023-03-01T00:11:56;41.87;37.21;47.11;;
69610;Laerm;56816;52.192;4.474;2023-03-01T00:12:06;37.49;34.38;44.14;;
69610;Laerm;56816;52.192;4.474;2023-03-01T00:12:17;36.78;34.48;40.65;;
69610;Laerm;56816;52.192;4.474;2023-03-01T00:12:28;51.26;35.16;67.40;;
69610;Laerm;56816;52.192;4.474;2023-03-01T00:12:38;39.92;33.16;53.85;;
69610;Laerm;56816;52.192;4.474;2023-03-01T00:12:48;35.96;33.46;38.56;;
69610;Laerm;56816;52.192;4.474;2023-03-01T00:12:59;35.92;33.93;38.27;;
69610;Laerm;56816;52.192;4.474;2023-03-01T00:13:09;40.82;35.00;46.35;;
69610;Laerm;56816;52.192;4.474;2023-03-01T00:13:19;39.02;35.17;43.73;;
69610;Laerm;56816;52.192;4.474;2023-03-01T00:13:29;37.00;34.13;40.53;;
69610;Laerm;56816;52.192;4.474;2023-03-01T00:13:40;37.40;34.93;40.55;;
69610;Laerm;56816;52.192;4.474;2023-03-01T00:13:51;40.64;35.54;45.29;;
69610;Laerm;56816;52.192;4.474;2023-03-01T00:14:02;38.63;35.80;41.81;;
69610;Laerm;56816;52.192;4.474;2023-03-01T00:14:14;39.27;35.89;42.52;;
69610;Laerm;56816;52.192;4.474;2023-03-01T00:14:26;50.28;41.73;54.60;;
69610;Laerm;56816;52.192;4.474;2023-03-01T00:14:36;43.95;38.86;49.05;;
69610;Laerm;56816;52.192;4.474;2023-03-01T00:14:46;43.73;40.54;46.45;;
69610;Laerm;56816;52.192;4.474;2023-03-01T00:14:57;41.44;37.60;48.20;;
69610;Laerm;56816;52.192;4.474;2023-03-01T00:15:07;49.02;39.06;64.53;;
69610;Laerm;56816;52.192;4.474;2023-03-01T00:15:17;46.51;34.97;56.38;;
69610;Laerm;56816;52.192;4.474;2023-03-01T00:15:28;35.99;33.41;38.04;;
69610;Laerm;56816;52.192;4.474;2023-03-01T00:15:39;39.10;34.47;45.37;;
69610;Laerm;56816;52.192;4.474;2023-03-01T00:15:50;36.57;33.33;40.33;;
69610;Laerm;56816;52.192;4.474;2023-03-01T00:16:04;36.06;34.34;38.12;;
69610;Laerm;56816;52.192;4.474;2023-03-01T00:16:16;37.21;34.67;43.49;;
69610;Laerm;56816;52.192;4.474;2023-03-01T00:16:28;51.49;34.16;60.50;;
69610;Laerm;56816;52.192;4.474;2023-03-01T00:16:39;52.17;36.33;62.45;;
69610;Laerm;56816;52.192;4.474;2023-03-01T00:16:50;39.91;35.67;47.18;;
69610;Laerm;56816;52.192;4.474;2023-03-01T00:17:01;38.06;35.13;41.00;;
69610;Laerm;56816;52.192;4.474;2023-03-01T00:17:11;38.14;34.87;42.03;;
69610;Laerm;56816;52.192;4.474;2023-03-01T00:17:22;35.95;33.70;38.54;;
69610;Laerm;56816;52.192;4.474;2023-03-01T00:17:32;35.84;33.41;39.07;;
69610;Laerm;56816;52.192;4.474;2023-03-01T00:17:43;35.67;33.14;37.72;;
69610;Laerm;56816;52.192;4.474;2023-03-01T00:17:53;35.88;33.67;39.98;;
69610;Laerm;56816;52.192;4.474;2023-03-01T00:18:03;38.36;34.25;42.47;;
69610;Laerm;56816;52.192;4.474;2023-03-01T00:18:13;38.49;35.41;42.10;;
69610;Laerm;56816;52.192;4.474;2023-03-01T00:18:24;41.45;37.41;44.85;;
69610;Laerm;56816;52.192;4.474;2023-03-01T00:18:34;39.09;36.35;41.64;;
69610;Laerm;56816;52.192;4.474;2023-03-01T00:18:45;38.78;36.65;42.21;;
69610;Laerm;56816;52.192;4.474;2023-03-01T00:18:55;39.35;36.28;44.19;;
69610;Laerm;56816;52.192;4.474;2023-03-01T00:19:06;42.76;38.80;47.54;;
69610;Laerm;56816;52.192;4.474;2023-03-01T00:19:18;42.41;39.85;45.92;;
69610;Laerm;56816;52.192;4.474;2023-03-01T00:19:29;43.04;40.01;47.04;;
69610;Laerm;56816;52.192;4.474;2023-03-01T00:19:39;46.07;39.64;49.48;;
69610;Laerm;56816;52.192;4.474;2023-03-01T00:19:50;51.74;38.34;60.02;;
69610;Laerm;56816;52.192;4.474;2023-03-01T00:20:00;51.29;40.93;61.68;;
69610;Laerm;56816;52.192;4.474;2023-03-01T00:20:10;40.62;34.69;50.57;;
69610;Laerm;56816;52.192;4.474;2023-03-01T00:20:21;40.56;33.99;51.92;;
69610;Laerm;56816;52.192;4.474;2023-03-01T00:20:31;34.79;32.64;37.24;;
69610;Laerm;56816;52.192;4.474;2023-03-01T00:20:41;35.15;32.34;38.04;;
69610;Laerm;56816;52.192;4.474;2023-03-01T00:20:52;34.20;32.42;37.46;;
69610;Laerm;56816;52.192;4.474;2023-03-01T00:21:02;34.39;32.42;37.54;;
69610;Laerm;56816;52.192;4.474;2023-03-01T00:21:13;35.04;32.95;37.54;;
69610;Laerm;56816;52.192;4.474;2023-03-01T00:21:23;35.72;32.82;38.27;;
69610;Laerm;56816;52.192;4.474;2023-03-01T00:21:34;36.17;33.70;44.63;;
69610;Laerm;56816;52.192;4.474;2023-03-01T00:21:45;36.84;32.61;40.97;;
69610;Laerm;56816;52.192;4.474;2023-03-01T00:21:55;38.25;34.15;42.63;;
69610;Laerm;56816;52.192;4.474;2023-03-01T00:22:06;36.51;33.58;39.34;;
69610;Laerm;56816;52.192;4.474;2023-03-01T00:22:16;37.00;34.89;39.90;;
69610;Laerm;56816;52.192;4.474;2023-03-01T00:22:26;37.13;33.48;41.80;;
69610;Laerm;56816;52.192;4.474;2023-03-01T00:22:38;38.59;34.61;47.51;;
69610;Laerm;56816;52.192;4.474;2023-03-01T00:22:48;40.14;35.22;47.80;;
69610;Laerm;56816;52.192;4.474;2023-03-01T00:22:58;40.94;35.81;46.27;;
69610;Laerm;56816;52.192;4.474;2023-03-01T00:23:09;37.49;33.97;41.37;;
69610;Laerm;56816;52.192;4.474;2023-03-01T00:23:19;37.24;34.24;41.03;;
69610;Laerm;56816;52.192;4.474;2023-03-01T00:23:29;36.25;33.75;39.21;;
69610;Laerm;56816;52.192;4.474;2023-03-01T00:23:40;36.61;33.90;38.94;;
69610;Laerm;56816;52.192;4.474;2023-03-01T00:23:50;35.21;32.93;37.79;;
69610;Laerm;56816;52.192;4.474;2023-03-01T00:24:01;36.70;33.56;43.81;;
69610;Laerm;56816;52.192;4.474;2023-03-01T00:24:12;36.62;34.55;38.86;;
69610;Laerm;56816;52.192;4.474;2023-03-01T00:24:22;36.30;34.06;39.37;;
69610;Laerm;56816;52.192;4.474;2023-03-01T00:24:32;38.80;35.38;43.93;;
69610;Laerm;56816;52.192;4.474;2023-03-01T00:24:42;39.05;35.72;42.82;;
69610;Laerm;56816;52.192;4.474;2023-03-01T00:24:53;38.76;34.95;44.59;;
69610;Laerm;56816;52.192;4.474;2023-03-01T00:25:03;40.91;36.28;45.92;;
69610;Laerm;56816;52.192;4.474;2023-03-01T00:25:13;39.74;36.22;43.90;;
69610;Laerm;56816;52.192;4.474;2023-03-01T00:25:24;38.99;36.51;42.54;;
69610;Laerm;56816;52.192;4.474;2023-03-01T00:25:40;38.27;35.82;41.81;;
69610;Laerm;56816;52.192;4.474;2023-03-01T00:25:50;41.83;34.81;49.26;;
69610;Laerm;56816;52.192;4.474;2023-03-01T00:26:01;42.28;37.53;51.49;;
69610;Laerm;56816;52.192;4.474;2023-03-01T00:26:12;41.61;36.83;46.18;;
69610;Laerm;56816;52.192;4.474;2023-03-01T00:26:23;38.95;35.89;42.20;;
69610;Laerm;56816;52.192;4.474;2023-03-01T00:26:33;38.07;35.72;42.71;;
69610;Laerm;56816;52.192;4.474;2023-03-01T00:26:44;36.14;33.73;38.68;;
69610;Laerm;56816;52.192;4.474;2023-03-01T00:26:54;34.37;32.58;36.02;;
69610;Laerm;56816;52.192;4.474;2023-03-01T00:27:07;33.84;31.47;35.99;;
69610;Laerm;56816;52.192;4.474;2023-03-01T00:27:18;33.67;32.30;36.27;;
69610;Laerm;56816;52.192;4.474;2023-03-01T00:27:28;34.44;31.96;39.60;;
69610;Laerm;56816;52.192;4.474;2023-03-01T00:27:38;35.56;33.45;37.65;;
69610;Laerm;56816;52.192;4.474;2023-03-01T00:27:48;36.14;33.36;38.55;;
69610;Laerm;56816;52.192;4.474;2023-03-01T00:27:59;40.99;37.05;48.03;;
69610;Laerm;56816;52.192;4.474;2023-03-01T00:28:09;46.07;41.43;51.27;;
69610;Laerm;56816;52.192;4.474;2023-03-01T00:28:19;39.60;35.35;43.26;;
69610;Laerm;56816;52.192;4.474;2023-03-01T00:28:30;37.09;34.63;46.35;;
69610;Laerm;56816;52.192;4.474;2023-03-01T00:28:41;37.71;33.86;41.97;;
69610;Laerm;56816;52.192;4.474;2023-03-01T00:28:52;40.75;37.54;43.85;;
69610;Laerm;56816;52.192;4.474;2023-03-01T00:29:02;39.32;35.26;44.52;;
69610;Laerm;56816;52.192;4.474;2023-03-01T00:29:13;38.21;35.26;41.14;;
69610;Laerm;56816;52.192;4.474;2023-03-01T00:29:23;40.08;37.24;43.54;;
69610;Laerm;56816;52.192;4.474;2023-03-01T00:29:34;38.49;35.10;41.50;;
69610;Laerm;56816;52.192;4.474;2023-03-01T00:29:44;37.77;34.28;41.84;;
69610;Laerm;56816;52.192;4.474;2023-03-01T00:29:55;35.80;33.34;39.71;;
69610;Laerm;56816;52.192;4.474;2023-03-01T00:30:05;35.95;33.58;39.05;;
69610;Laerm;56816;52.192;4.474;2023-03-01T00:30:16;34.81;33.21;36.79;;
69610;Laerm;56816;52.192;4.474;2023-03-01T00:30:26;35.28;32.96;38.41;;
69610;Laerm;56816;52.192;4.474;2023-03-01T00:30:36;35.35;32.55;37.72;;
69610;Laerm;56816;52.192;4.474;2023-03-01T00:30:47;35.35;32.96;39.85;;
69610;Laerm;56816;52.192;4.474;2023-03-01T00:31:02;38.47;35.06;46.57;;
69610;Laerm;56816;52.192;4.474;2023-03-01T00:31:13;40.43;34.62;47.04;;
69610;Laerm;56816;52.192;4.474;2023-03-01T00:31:25;39.49;35.81;44.36;;
69610;Laerm;56816;52.192;4.474;2023-03-01T00:31:36;38.43;35.87;42.10;;
69610;Laerm;56816;52.192;4.474;2023-03-01T00:31:46;38.58;34.47;41.69;;
69610;Laerm;56816;52.192;4.474;2023-03-01T00:31:56;41.28;38.17;45.01;;
69610;Laerm;56816;52.192;4.474;2023-03-01T00:32:07;41.58;38.79;43.81;;
69610;Laerm;56816;52.192;4.474;2023-03-01T00:32:17;40.46;37.06;43.55;;
69610;Laerm;56816;52.192;4.474;2023-03-01T00:32:27;40.09;37.59;42.80;;
69610;Laerm;56816;52.192;4.474;2023-03-01T00:32:37;40.65;37.07;45.31;;
69610;Laerm;56816;52.192;4.474;2023-03-01T00:32:48;41.30;38.06;45.63;;
69610;Laerm;56816;52.192;4.474;2023-03-01T00:32:58;50.99;41.38;66.40;;
69610;Laerm;56816;52.192;4.474;2023-03-01T00:33:08;41.19;36.00;48.10;;
69610;Laerm;56816;52.192;4.474;2023-03-01T00:33:19;38.85;35.85;44.12;;
69610;Laerm;56816;52.192;4.474;2023-03-01T00:33:29;44.65;39.08;47.55;;
69610;Laerm;56816;52.192;4.474;2023-03-01T00:33:40;43.60;38.89;47.24;;
69610;Laerm;56816;52.192;4.474;2023-03-01T00:33:53;41.70;37.53;45.90;;
69610;Laerm;56816;52.192;4.474;2023-03-01T00:34:07;39.15;35.75;45.19;;
69610;Laerm;56816;52.192;4.474;2023-03-01T00:34:17;38.71;34.79;42.51;;
69610;Laerm;56816;52.192;4.474;2023-03-01T00:34:28;40.56;36.52;47.16;;
69610;Laerm;56816;52.192;4.474;2023-03-01T00:34:38;38.89;34.99;42.60;;
69610;Laerm;56816;52.192;4.474;2023-03-01T00:34:48;38.93;35.98;41.46;;
69610;Laerm;56816;52.192;4.474;2023-03-01T00:35:05;39.73;34.31;47.72;;
69610;Laerm;56816;52.192;4.474;2023-03-01T00:35:15;39.42;35.18;42.96;;
69610;Laerm;56816;52.192;4.474;2023-03-01T00:35:26;37.16;33.32;40.38;;
69610;Laerm;56816;52.192;4.474;2023-03-01T00:35:36;38.50;35.18;43.24;;
69610;Laerm;56816;52.192;4.474;2023-03-01T00:35:46;39.01;35.22;42.18;;
69610;Laerm;56816;52.192;4.474;2023-03-01T00:35:57;42.81;36.45;48.26;;
69610;Laerm;56816;52.192;4.474;2023-03-01T00:36:09;45.54;39.86;48.88;;
69610;Laerm;56816;52.192;4.474;2023-03-01T00:36:19;50.19;44.92;56.82;;
69610;Laerm;56816;52.192;4.474;2023-03-01T00:36:33;53.67;49.42;56.38;;
69610;Laerm;56816;52.192;4.474;2023-03-01T00:36:44;46.68;41.08;53.43;;
69610;Laerm;56816;52.192;4.474;2023-03-01T00:36:54;40.50;36.64;44.52;;
69610;Laerm;56816;52.192;4.474;2023-03-01T00:37:05;38.32;35.66;41.31;;
69610;Laerm;56816;52.192;4.474;2023-03-01T00:37:15;37.06;33.86;44.21;;
69610;Laerm;56816;52.192;4.474;2023-03-01T00:37:25;37.21;34.12;41.27;;
69610;Laerm;56816;52.192;4.474;2023-03-01T00:37:36;37.19;34.55;40.15;;
69610;Laerm;56816;52.192;4.474;2023-03-01T00:37:46;39.69;34.50;45.46;;
69610;Laerm;56816;52.192;4.474;2023-03-01T00:37:56;40.93;36.98;45.93;;
69610;Laerm;56816;52.192;4.474;2023-03-01T00:38:08;42.40;36.09;51.94;;
69610;Laerm;56816;52.192;4.474;2023-03-01T00:38:18;40.60;37.22;44.50;;
69610;Laerm;56816;52.192;4.474;2023-03-01T00:38:28;38.34;35.74;41.58;;
69610;Laerm;56816;52.192;4.474;2023-03-01T00:38:40;36.50;33.97;39.05;;
69610;Laerm;56816;52.192;4.474;2023-03-01T00:38:51;34.74;31.72;36.73;;
69610;Laerm;56816;52.192;4.474;2023-03-01T00:39:02;34.07;32.37;36.32;;
69610;Laerm;56816;52.192;4.474;2023-03-01T00:39:14;34.48;32.76;36.77;;
69610;Laerm;56816;52.192;4.474;2023-03-01T00:39:25;34.60;33.07;37.65;;
69610;Laerm;56816;52.192;4.474;2023-03-01T00:39:35;35.82;33.81;37.70;;
69610;Laerm;56816;52.192;4.474;2023-03-01T00:39:45;38.06;33.99;42.43;;
69610;Laerm;56816;52.192;4.474;2023-03-01T00:39:55;38.42;34.98;44.80;;
69610;Laerm;56816;52.192;4.474;2023-03-01T00:40:06;41.73;35.33;45.81;;
69610;Laerm;56816;52.192;4.474;2023-03-01T00:40:16;39.84;36.55;42.75;;
69610;Laerm;56816;52.192;4.474;2023-03-01T00:40:27;41.44;37.76;46.24;;
69610;Laerm;56816;52.192;4.474;2023-03-01T00:40:37;38.52;34.73;42.10;;
69610;Laerm;56816;52.192;4.474;2023-03-01T00:40:48;40.95;36.40;45.23;;
69610;Laerm;56816;52.192;4.474;2023-03-01T00:41:02;38.86;35.52;43.99;;
69610;Laerm;56816;52.192;4.474;2023-03-01T00:41:14;38.69;36.04;41.82;;
69610;Laerm;56816;52.192;4.474;2023-03-01T00:41:24;40.21;36.63;45.14;;
69610;Laerm;56816;52.192;4.474;2023-03-01T00:41:36;39.48;35.82;43.62;;
69610;Laerm;56816;52.192;4.474;2023-03-01T00:41:46;41.47;37.38;44.29;;
69610;Laerm;56816;52.192;4.474;2023-03-01T00:41:57;38.77;35.06;42.79;;
69610;Laerm;56816;52.192;4.474;2023-03-01T00:42:07;37.67;35.20;39.81;;
69610;Laerm;56816;52.192;4.474;2023-03-01T00:42:17;36.98;34.48;42.90;;
69610;Laerm;56816;52.192;4.474;2023-03-01T00:42:28;36.14;33.12;41.77;;
69610;Laerm;56816;52.192;4.474;2023-03-01T00:42:38;37.22;34.95;40.33;;
69610;Laerm;56816;52.192;4.474;2023-03-01T00:42:48;38.71;36.67;41.93;;
69610;Laerm;56816;52.192;4.474;2023-03-01T00:42:58;39.64;36.24;43.04;;
69610;Laerm;56816;52.192;4.474;2023-03-01T00:43:09;54.30;40.50;70.68;;
69610;Laerm;56816;52.192;4.474;2023-03-01T00:43:20;45.88;36.85;56.17;;
69610;Laerm;56816;52.192;4.474;2023-03-01T00:43:30;37.61;35.16;39.85;;
69610;Laerm;56816;52.192;4.474;2023-03-01T00:43:41;42.14;36.01;53.55;;
69610;Laerm;56816;52.192;4.474;2023-03-01T00:43:52;57.09;41.05;76.03;;
69610;Laerm;56816;52.192;4.474;2023-03-01T00:44:02;52.04;44.40;56.76;;
69610;Laerm;56816;52.192;4.474;2023-03-01T00:44:12;44.31;41.39;52.06;;
69610;Laerm;56816;52.192;4.474;2023-03-01T00:44:23;40.93;37.30;43.97;;
69610;Laerm;56816;52.192;4.474;2023-03-01T00:44:33;39.05;36.92;42.83;;
69610;Laerm;56816;52.192;4.474;2023-03-01T00:44:44;38.06;35.62;43.55;;
69610;Laerm;56816;52.192;4.474;2023-03-01T00:44:54;37.73;35.10;48.46;;
69610;Laerm;56816;52.192;4.474;2023-03-01T00:45:05;36.52;34.11;39.83;;
69610;Laerm;56816;52.192;4.474;2023-03-01T00:45:15;35.32;33.17;38.98;;
69610;Laerm;56816;52.192;4.474;2023-03-01T00:45:26;35.26;32.46;38.22;;
69610;Laerm;56816;52.192;4.474;2023-03-01T00:45:37;36.56;34.36;47.11;;
69610;Laerm;56816;52.192;4.474;2023-03-01T00:45:47;36.19;33.89;39.00;;
69610;Laerm;56816;52.192;4.474;2023-03-01T00:46:00;36.77;33.85;39.83;;
69610;Laerm;56816;52.192;4.474;2023-03-01T00:46:15;36.65;34.11;40.03;;
69610;Laerm;56816;52.192;4.474;2023-03-01T00:46:26;37.64;34.54;44.49;;
69610;Laerm;56816;52.192;4.474;2023-03-01T00:46:37;38.07;34.96;42.16;;
69610;Laerm;56816;52.192;4.474;2023-03-01T00:46:47;36.70;34.76;43.14;;
69610;Laerm;56816;52.192;4.474;2023-03-01T00:46:57;39.48;35.20;44.23;;
69610;Laerm;56816;52.192;4.474;2023-03-01T00:47:07;50.70;38.12;58.59;;
69610;Laerm;56816;52.192;4.474;2023-03-01T00:47:18;50.16;38.06;57.64;;
69610;Laerm;56816;52.192;4.474;2023-03-01T00:47:28;42.25;35.85;50.40;;
69610;Laerm;56816;52.192;4.474;2023-03-01T00:47:39;40.35;36.59;44.29;;
69610;Laerm;56816;52.192;4.474;2023-03-01T00:47:50;42.33;38.09;47.21;;
69610;Laerm;56816;52.192;4.474;2023-03-01T00:48:00;42.56;38.18;48.30;;
69610;Laerm;56816;52.192;4.474;2023-03-01T00:48:10;42.33;37.95;48.52;;
69610;Laerm;56816;52.192;4.474;2023-03-01T00:48:21;40.84;36.79;43.99;;
69610;Laerm;56816;52.192;4.474;2023-03-01T00:48:31;40.46;37.37;44.87;;
69610;Laerm;56816;52.192;4.474;2023-03-01T00:48:42;38.23;34.86;41.80;;
69610;Laerm;56816;52.192;4.474;2023-03-01T00:48:52;35.59;32.99;44.43;;
69610;Laerm;56816;52.192;4.474;2023-03-01T00:49:02;39.34;32.50;52.70;;
69610;Laerm;56816;52.192;4.474;2023-03-01T00:49:14;34.49;32.81;36.57;;
69610;Laerm;56816;52.192;4.474;2023-03-01T00:49:24;34.40;31.81;44.15;;
69610;Laerm;56816;52.192;4.474;2023-03-01T00:49:37;35.55;32.97;46.15;;
69610;Laerm;56816;52.192;4.474;2023-03-01T00:49:48;35.83;32.77;38.15;;
69610;Laerm;56816;52.192;4.474;2023-03-01T00:49:58;35.27;32.77;38.93;;
69610;Laerm;56816;52.192;4.474;2023-03-01T00:50:08;36.30;33.25;39.55;;
69610;Laerm;56816;52.192;4.474;2023-03-01T00:50:19;38.41;34.76;42.73;;
69610;Laerm;56816;52.192;4.474;2023-03-01T00:50:29;38.18;35.41;42.12;;
69610;Laerm;56816;52.192;4.474;2023-03-01T00:50:40;38.80;36.14;41.89;;
69610;Laerm;56816;52.192;4.474;2023-03-01T00:50:50;38.74;36.42;41.36;;
69610;Laerm;56816;52.192;4.474;2023-03-01T00:51:07;39.66;37.25;42.31;;
69610;Laerm;56816;52.192;4.474;2023-03-01T00:51:28;40.85;36.53;46.32;;
69610;Laerm;56816;52.192;4.474;2023-03-01T00:51:38;40.79;37.77;45.14;;
69610;Laerm;56816;52.192;4.474;2023-03-01T00:51:51;40.63;37.19;45.46;;
69610;Laerm;56816;52.192;4.474;2023-03-01T00:52:01;37.78;33.98;41.91;;
69610;Laerm;56816;52.192;4.474;2023-03-01T00:52:11;36.83;33.79;45.27;;
69610;Laerm;56816;52.192;4.474;2023-03-01T00:52:22;37.30;34.98;40.94;;
69610;Laerm;56816;52.192;4.474;2023-03-01T00:52:32;39.39;35.88;43.64;;
69610;Laerm;56816;52.192;4.474;2023-03-01T00:52:43;38.99;35.10;43.73;;
69610;Laerm;56816;52.192;4.474;2023-03-01T00:52:54;42.94;36.73;49.30;;
69610;Laerm;56816;52.192;4.474;2023-03-01T00:53:04;37.99;32.72;43.37;;
69610;Laerm;56816;52.192;4.474;2023-03-01T00:53:15;37.20;33.30;40.79;;
69610;Laerm;56816;52.192;4.474;2023-03-01T00:53:25;35.98;32.93;40.29;;
69610;Laerm;56816;52.192;4.474;2023-03-01T00:53:35;35.23;32.06;38.35;;
69610;Laerm;56816;52.192;4.474;2023-03-01T00:53:46;34.08;31.72;37.57;;
69610;Laerm;56816;52.192;4.474;2023-03-01T00:53:58;35.01;32.12;51.98;;
69610;Laerm;56816;52.192;4.474;2023-03-01T00:54:08;34.10;32.26;35.79;;
69610;Laerm;56816;52.192;4.474;2023-03-01T00:54:19;35.65;32.49;41.04;;
69610;Laerm;56816;52.192;4.474;2023-03-01T00:54:29;40.37;33.83;51.06;;
69610;Laerm;56816;52.192;4.474;2023-03-01T00:54:39;40.33;36.99;44.96;;
69610;Laerm;56816;52.192;4.474;2023-03-01T00:54:51;44.63;35.10;55.42;;
69610;Laerm;56816;52.192;4.474;2023-03-01T00:55:02;54.21;41.88;63.53;;
69610;Laerm;56816;52.192;4.474;2023-03-01T00:55:13;50.02;40.00;68.13;;
69610;Laerm;56816;52.192;4.474;2023-03-01T00:55:23;50.68;34.92;60.56;;
69610;Laerm;56816;52.192;4.474;2023-03-01T00:55:33;43.39;35.06;49.33;;
69610;Laerm;56816;52.192;4.474;2023-03-01T00:55:45;53.85;43.86;61.60;;
69610;Laerm;56816;52.192;4.474;2023-03-01T00:55:56;41.74;37.74;46.52;;
69610;Laerm;56816;52.192;4.474;2023-03-01T00:56:07;37.67;35.05;40.67;;
69610;Laerm;56816;52.192;4.474;2023-03-01T00:56:18;37.16;34.72;40.85;;
69610;Laerm;56816;52.192;4.474;2023-03-01T00:56:28;35.34;32.90;39.85;;
69610;Laerm;56816;52.192;4.474;2023-03-01T00:56:39;36.39;34.57;38.89;;
69610;Laerm;56816;52.192;4.474;2023-03-01T00:56:49;38.39;35.68;41.42;;
69610;Laerm;56816;52.192;4.474;2023-03-01T00:57:00;38.98;34.85;43.36;;
69610;Laerm;56816;52.192;4.474;2023-03-01T00:57:10;39.19;36.31;42.29;;
69610;Laerm;56816;52.192;4.474;2023-03-01T00:57:20;38.62;35.29;43.55;;
69610;Laerm;56816;52.192;4.474;2023-03-01T00:57:31;37.12;34.28;40.57;;
69610;Laerm;56816;52.192;4.474;2023-03-01T00:57:41;36.82;33.53;39.30;;
69610;Laerm;56816;52.192;4.474;2023-03-01T00:57:51;36.20;32.74;39.14;;
69610;Laerm;56816;52.192;4.474;2023-03-01T00:58:01;35.51;32.86;38.51;;
69610;Laerm;56816;52.192;4.474;2023-03-01T00:58:12;34.67;32.68;37.52;;
69610;Laerm;56816;52.192;4.474;2023-03-01T00:58:22;34.60;32.53;38.87;;
69610;Laerm;56816;52.192;4.474;2023-03-01T00:58:32;34.44;32.74;43.16;;
69610;Laerm;56816;52.192;4.474;2023-03-01T00:58:42;35.22;32.73;44.05;;
69610;Laerm;56816;52.192;4.474;2023-03-01T00:58:53;35.58;32.93;38.98;;
69610;Laerm;56816;52.192;4.474;2023-03-01T00:59:03;35.74;33.32;46.39;;
69610;Laerm;56816;52.192;4.474;2023-03-01T00:59:13;36.76;33.30;47.36;;
69610;Laerm;56816;52.192;4.474;2023-03-01T00:59:24;36.81;34.03;39.65;;
69610;Laerm;56816;52.192;4.474;2023-03-01T00:59:34;40.88;34.42;51.94;;
69610;Laerm;56816;52.192;4.474;2023-03-01T00:59:45;39.89;35.72;45.20;;
69610;Laerm;56816;52.192;4.474;2023-03-01T00:59:55;38.91;35.07;41.55;;
69610;Laerm;56816;52.192;4.474;2023-03-01T01:00:05;41.22;34.53;46.73;;
69610;Laerm;56816;52.192;4.474;2023-03-01T01:00:17;42.53;37.53;49.33;;
69610;Laerm;56816;52.192;4.474;2023-03-01T01:00:27;53.42;38.00;65.13;;
69610;Laerm;56816;52.192;4.474;2023-03-01T01:00:37;38.39;35.92;42.18;;